Time;durP1;ratioP1;P1;durP2;ratioP2;P2;SDS_P1;SDS_P2;PMS_P1;PMS_P2;Temp;Humidity;BMP_temperature;BMP_pressure;BME280_temperature;BME280_humidity;BME280_pressure;Samples;Min_cycle;Max_cycle;Signal;HPM_P1;HPM_P2
2023/11/25 00:00:24;;;;;;;5.82;2.00;;;;;;;0.79;100.00;101321.81;4973500;28;20038;-92
2023/11/25 00:02:50;;;;;;;7.68;2.63;;;;;;;0.74;100.00;101319.28;4974742;28;20392;-92
2023/11/25 00:05:16;;;;;;;12.77;3.38;;;;;;;0.77;100.00;101314.19;4976018;28;20030;-91
2023/11/25 00:07:41;;;;;;;10.70;3.75;;;;;;;0.83;100.00;101298.13;4975743;28;20034;-91
2023/11/25 00:10:07;;;;;;;9.60;2.58;;;;;;;0.80;100.00;101291.31;4974266;28;20489;-92
2023/11/25 00:12:33;;;;;;;8.50;2.05;;;;;;;0.91;100.00;101290.44;4974726;28;20062;-92
2023/11/25 00:14:59;;;;;;;4.05;1.85;;;;;;;0.80;100.00;101281.16;4968525;28;20034;-92
2023/11/25 00:17:28;;;;;;;3.58;2.17;;;;;;;0.82;100.00;101283.69;4975380;28;20101;-92
2023/11/25 00:19:56;;;;;;;5.63;2.13;;;;;;;0.70;100.00;101287.13;4955099;29;20027;-92
2023/11/25 00:22:22;;;;;;;4.00;1.90;;;;;;;0.77;100.00;101285.41;4955166;29;20035;-91
2023/11/25 00:24:48;;;;;;;5.03;2.25;;;;;;;0.74;100.00;101265.94;4956249;28;20034;-91
2023/11/25 00:27:14;;;;;;;7.93;2.30;;;;;;;0.83;100.00;101270.16;4966478;28;20037;-92
2023/11/25 00:29:41;;;;;;;7.55;2.13;;;;;;;0.79;100.00;101269.31;4973446;28;20030;-91
2023/11/25 00:32:07;;;;;;;7.68;1.98;;;;;;;0.84;100.00;101272.66;4975562;28;20031;-92
2023/11/25 00:34:33;;;;;;;3.53;1.80;;;;;;;0.81;100.00;101261.69;4975451;28;20027;-92
2023/11/25 00:36:58;;;;;;;6.20;1.70;;;;;;;0.80;100.00;101262.53;4975237;28;20033;-92
2023/11/25 00:39:23;;;;;;;3.58;1.88;;;;;;;0.76;100.00;101268.50;4974280;28;20106;-93
2023/11/25 00:41:49;;;;;;;5.13;1.40;;;;;;;0.70;100.00;101266.78;4974237;28;20062;-92
2023/11/25 00:44:14;;;;;;;5.45;1.70;;;;;;;0.68;100.00;101275.28;4974377;28;20106;-91
2023/11/25 00:46:40;;;;;;;6.40;2.08;;;;;;;0.60;100.00;101283.75;4973996;28;20126;-92
2023/11/25 00:49:06;;;;;;;11.23;3.95;;;;;;;0.54;100.00;101290.56;4974063;28;20038;-92
2023/11/25 00:51:31;;;;;;;6.70;3.25;;;;;;;0.39;100.00;101278.72;4973667;28;20138;-91
2023/11/25 00:53:57;;;;;;;12.95;5.10;;;;;;;0.38;100.00;101288.03;4975500;28;20047;-92
2023/11/25 00:56:23;;;;;;;14.93;5.28;;;;;;;0.40;100.00;101281.28;4973899;28;20082;-92
2023/11/25 00:58:49;;;;;;;10.63;4.60;;;;;;;0.39;100.00;101289.75;4973092;28;20023;-92
2023/11/25 01:01:14;;;;;;;16.23;6.93;;;;;;;0.31;100.00;101281.28;4973015;28;20034;-91
2023/11/25 01:03:39;;;;;;;9.57;3.85;;;;;;;0.12;100.00;101293.19;4974901;28;20110;-92
2023/11/25 01:06:09;;;;;;;7.28;3.20;;;;;;;0.20;100.00;101298.25;4975082;28;20114;-92
2023/11/25 01:08:36;;;;;;;6.40;2.97;;;;;;;0.21;100.00;101305.00;4975186;28;20027;-92
2023/11/25 01:11:01;;;;;;;5.00;2.95;;;;;;;0.24;100.00;101301.59;4975067;28;20142;-91
2023/11/25 01:13:28;;;;;;;5.80;3.00;;;;;;;0.14;100.00;101303.31;4974868;28;20060;-90
2023/11/25 01:15:54;;;;;;;9.65;4.00;;;;;;;0.26;100.00;101300.75;4974002;28;20115;-92
2023/11/25 01:18:20;;;;;;;12.45;5.22;;;;;;;0.27;100.00;101306.69;4973863;28;20114;-92
2023/11/25 01:20:45;;;;;;;13.18;5.20;;;;;;;0.12;100.00;101305.88;4975018;28;20062;-92
2023/11/25 01:23:11;;;;;;;10.32;5.05;;;;;;;0.19;100.00;101304.16;4975110;28;20022;-92
2023/11/25 01:25:36;;;;;;;10.23;3.63;;;;;;;0.17;100.00;101308.38;4973761;28;20121;-91
2023/11/25 01:28:03;;;;;;;6.43;2.17;;;;;;;-0.07;100.00;101314.31;4975200;28;20089;-92
2023/11/25 01:30:30;;;;;;;4.20;1.60;;;;;;;-0.10;100.00;101327.84;4972268;28;20027;-91
2023/11/25 01:32:58;;;;;;;7.93;1.85;;;;;;;-0.16;100.00;101330.38;4974070;28;20058;-92
2023/11/25 01:35:24;;;;;;;6.43;2.50;;;;;;;-0.17;100.00;101328.69;4973474;28;20022;-92
2023/11/25 01:37:50;;;;;;;9.10;2.15;;;;;;;-0.17;100.00;101326.16;4973471;28;20027;-92
2023/11/25 01:40:15;;;;;;;4.25;2.15;;;;;;;-0.11;100.00;101338.00;4974621;28;20042;-91
2023/11/25 01:42:41;;;;;;;7.93;2.88;;;;;;;-0.07;100.00;101338.00;4974312;28;20101;-90
2023/11/25 01:45:08;;;;;;;6.82;3.17;;;;;;;-0.02;100.00;101338.00;4973556;28;20033;-90
2023/11/25 01:47:34;;;;;;;8.93;3.22;;;;;;;-0.04;100.00;101340.53;4974212;28;20019;-90
2023/11/25 01:50:01;;;;;;;8.23;3.72;;;;;;;-0.02;100.00;101343.09;4974341;28;20022;-92
2023/11/25 01:52:27;;;;;;;8.93;3.40;;;;;;;0.03;100.00;101340.56;4971315;28;20027;-92
2023/11/25 01:54:53;;;;;;;12.95;4.95;;;;;;;0.02;100.00;101338.84;4972643;28;20037;-91
2023/11/25 01:57:20;;;;;;;12.20;3.75;;;;;;;0.11;100.00;101347.31;4974480;28;20036;-95
2023/11/25 01:59:48;;;;;;;10.95;2.72;;;;;;;0.18;100.00;101351.53;4972941;28;20114;-94
2023/11/25 02:02:18;;;;;;;9.32;4.65;;;;;;;0.15;100.00;101345.63;4973371;28;20122;-93
2023/11/25 02:04:43;;;;;;;7.60;3.20;;;;;;;0.14;100.00;101344.75;4973266;28;20027;-94
2023/11/25 02:07:12;;;;;;;7.60;3.20;;;;;;;0.13;100.00;101347.31;4971820;28;20033;-91
2023/11/25 02:09:37;;;;;;;7.65;2.97;;;;;;;0.06;100.00;101358.31;4973390;28;20122;-93
2023/11/25 02:12:02;;;;;;;5.57;2.72;;;;;;;0.08;100.00;101359.16;4974396;28;20114;-92
2023/11/25 02:14:28;;;;;;;7.97;3.10;;;;;;;0.03;100.00;101360.84;4971715;28;20035;-90
2023/11/25 02:16:55;;;;;;;6.18;2.83;;;;;;;0.01;100.00;101358.31;4974093;28;20031;-92
2023/11/25 02:19:21;;;;;;;9.15;2.72;;;;;;;-0.23;100.00;101356.59;4972947;28;20038;-92
2023/11/25 02:21:47;;;;;;;11.90;3.28;;;;;;;-0.30;100.00;101358.25;4973335;28;20033;-92
2023/11/25 02:24:13;;;;;;;12.50;3.33;;;;;;;-0.22;100.00;101345.56;4972271;28;20039;-93
2023/11/25 02:26:39;;;;;;;8.38;3.70;;;;;;;-0.15;100.00;101356.59;4972432;28;20066;-92
2023/11/25 02:29:05;;;;;;;11.75;3.63;;;;;;;-0.08;100.00;101355.75;4971766;28;20034;-91
2023/11/25 02:31:31;;;;;;;7.50;3.28;;;;;;;-0.15;100.00;101347.28;4973324;28;20023;-92
2023/11/25 02:33:57;;;;;;;8.57;2.97;;;;;;;-0.16;100.00;101350.69;4972541;28;20027;-91
2023/11/25 02:36:23;;;;;;;7.28;2.88;;;;;;;-0.20;100.00;101351.50;4972102;28;20027;-92
2023/11/25 02:38:49;;;;;;;7.18;2.60;;;;;;;-0.12;100.00;101352.38;4972754;28;20037;-91
2023/11/25 02:41:14;;;;;;;8.70;3.00;;;;;;;-0.23;100.00;101354.88;4973730;28;20118;-93
2023/11/25 02:43:40;;;;;;;8.43;3.42;;;;;;;-0.17;100.00;101343.91;4972754;28;20053;-93
2023/11/25 02:46:06;;;;;;;7.07;3.22;;;;;;;-0.16;100.00;101343.06;4971313;28;20129;-92
2023/11/25 02:48:32;;;;;;;11.93;3.08;;;;;;;-0.23;100.00;101344.75;4973452;28;20451;-91
2023/11/25 02:50:57;;;;;;;7.45;2.60;;;;;;;-0.27;100.00;101326.97;4971925;28;20031;-90
2023/11/25 02:53:23;;;;;;;8.52;3.08;;;;;;;-0.19;100.00;101340.53;4972822;28;20023;-90
2023/11/25 02:55:49;;;;;;;7.03;2.85;;;;;;;-0.24;100.00;101327.84;4972040;28;20027;-89
2023/11/25 02:58:15;;;;;;;6.13;2.60;;;;;;;-0.19;100.00;101344.75;4971992;28;20442;-91
2023/11/25 03:00:40;;;;;;;9.98;2.72;;;;;;;-0.27;100.00;101332.91;4971800;28;20027;-92
2023/11/25 03:03:12;;;;;;;9.07;3.53;;;;;;;-0.30;100.00;101342.19;4973330;28;20058;-92
2023/11/25 03:05:38;;;;;;;5.55;2.78;;;;;;;-0.33;100.00;101337.13;4978091;28;20023;-93
2023/11/25 03:08:06;;;;;;;8.82;2.72;;;;;;;-0.32;100.00;101338.78;4978821;28;20489;-91
2023/11/25 03:10:31;;;;;;;8.05;2.60;;;;;;;-0.39;100.00;101327.81;4979201;28;20093;-92
2023/11/25 03:12:59;;;;;;;10.35;3.72;;;;;;;-0.37;100.00;101326.09;4979056;28;20026;-92
2023/11/25 03:15:24;;;;;;;5.88;2.25;;;;;;;-0.48;100.00;101323.56;4960442;28;20130;-93
2023/11/25 03:17:50;;;;;;;5.10;2.30;;;;;;;-0.37;100.00;101320.19;4970692;28;20109;-92
2023/11/25 03:20:16;;;;;;;8.15;2.47;;;;;;;-0.37;100.00;101320.19;4978176;28;20134;-91
2023/11/25 03:22:43;;;;;;;7.28;2.70;;;;;;;-0.55;100.00;101326.91;4966493;28;20023;-91
2023/11/25 03:25:09;;;;;;;5.47;3.03;;;;;;;-0.60;100.00;101323.53;4978979;28;20025;-91
2023/11/25 03:27:38;;;;;;;7.82;2.50;;;;;;;-0.55;100.00;101321.84;4978835;28;20027;-91
2023/11/25 03:30:06;;;;;;;9.93;2.50;;;;;;;-0.56;100.00;101322.72;4972380;28;20074;-90
2023/11/25 03:32:32;;;;;;;11.15;3.35;;;;;;;-0.58;100.00;101315.94;4979093;28;20027;-91
2023/11/25 03:35:00;;;;;;;6.13;2.70;;;;;;;-0.65;100.00;101310.00;4979576;28;20023;-91
2023/11/25 03:37:25;;;;;;;4.95;2.67;;;;;;;-0.67;100.00;101312.50;4979274;28;20026;-91
2023/11/25 03:39:51;;;;;;;9.73;2.55;;;;;;;-0.63;100.00;101315.06;4979543;28;20057;-90
2023/11/25 03:42:20;;;;;;;7.63;2.58;;;;;;;-0.67;100.00;101316.75;4978833;28;20097;-91
2023/11/25 03:44:46;;;;;;;6.55;2.00;;;;;;;-0.80;100.00;101315.88;4978020;28;20042;-90
2023/11/25 03:47:11;;;;;;;11.30;2.55;;;;;;;-0.77;100.00;101315.03;4978206;28;20085;-91
2023/11/25 03:49:37;;;;;;;7.60;2.70;;;;;;;-0.82;100.00;101316.72;4979015;28;20027;-91
2023/11/25 03:52:02;;;;;;;7.22;2.60;;;;;;;-0.72;100.00;101313.34;4979303;28;20063;-90
2023/11/25 03:54:28;;;;;;;8.98;3.40;;;;;;;-0.79;100.00;101309.09;4978051;28;20022;-90
2023/11/25 03:56:54;;;;;;;6.22;3.70;;;;;;;-0.76;100.00;101309.09;4979436;28;20027;-91
2023/11/25 03:59:19;;;;;;;9.68;3.75;;;;;;;-0.86;100.00;101310.75;4977749;28;20027;-91
2023/11/25 04:01:45;;;;;;;11.23;3.72;;;;;;;-0.92;100.00;101298.94;4977699;28;20037;-90
2023/11/25 04:04:11;;;;;;;8.80;3.47;;;;;;;-0.86;100.00;101295.56;4979065;28;20041;-91
2023/11/25 04:06:36;;;;;;;8.45;3.75;;;;;;;-0.98;100.00;101291.28;4979267;28;20038;-90
2023/11/25 04:09:02;;;;;;;6.57;3.90;;;;;;;-0.98;100.00;101291.28;4978928;28;20397;-91
2023/11/25 04:11:27;;;;;;;6.97;3.35;;;;;;;-1.13;100.00;101296.31;4979037;28;20085;-92
2023/11/25 04:13:56;;;;;;;7.10;3.03;;;;;;;-1.10;100.00;101291.25;4977505;28;20031;-93
2023/11/25 04:16:22;;;;;;;6.63;2.75;;;;;;;-1.23;100.00;101284.44;4975934;28;20097;-91
2023/11/25 04:18:48;;;;;;;10.18;3.75;;;;;;;-1.16;100.00;101276.03;4975689;28;20054;-91
2023/11/25 04:21:13;;;;;;;5.03;3.08;;;;;;;-1.07;100.00;101273.53;4975301;28;20027;-90
2023/11/25 04:23:39;;;;;;;8.75;3.08;;;;;;;-1.06;100.00;101271.84;4975489;28;20026;-91
2023/11/25 04:26:05;;;;;;;12.32;3.45;;;;;;;-1.02;100.00;101274.41;4975475;28;20027;-91
2023/11/25 04:28:33;;;;;;;5.95;2.90;;;;;;;-1.03;100.00;101274.38;4974669;28;20031;-91
2023/11/25 04:30:59;;;;;;;9.18;3.13;;;;;;;-1.09;100.00;101272.69;4974483;28;20029;-91
2023/11/25 04:33:24;;;;;;;5.03;2.97;;;;;;;-1.13;100.00;101270.97;4975146;28;20026;-92
2023/11/25 04:35:51;;;;;;;5.10;3.00;;;;;;;-1.13;100.00;101260.84;4974257;28;20458;-92
2023/11/25 04:38:17;;;;;;;7.97;3.00;;;;;;;-1.20;100.00;101259.97;4975117;28;20023;-92
2023/11/25 04:40:42;;;;;;;8.32;3.47;;;;;;;-1.11;100.00;101259.16;4973921;28;20401;-92
2023/11/25 04:43:08;;;;;;;7.72;3.15;;;;;;;-1.14;100.00;101251.56;4972829;28;20066;-92
2023/11/25 04:45:34;;;;;;;10.68;3.28;;;;;;;-1.06;100.00;101246.50;4973931;28;20441;-93
2023/11/25 04:48:00;;;;;;;7.10;2.47;;;;;;;-1.09;100.00;101238.06;4974694;28;20038;-92
2023/11/25 04:50:26;;;;;;;7.78;2.80;;;;;;;-1.26;100.00;101238.84;4973896;28;20405;-92
2023/11/25 04:52:53;;;;;;;5.85;2.70;;;;;;;-1.36;100.00;101228.66;4974052;28;20027;-91
2023/11/25 04:55:21;;;;;;;6.47;2.03;;;;;;;-1.40;100.00;101216.00;4973946;28;20062;-91
2023/11/25 04:57:47;;;;;;;4.13;1.70;;;;;;;-1.42;100.00;101215.97;4972728;28;20065;-91
2023/11/25 05:00:14;;;;;;;8.98;2.00;;;;;;;-1.28;100.00;101220.25;4974206;28;20440;-91
2023/11/25 05:02:44;;;;;;;4.68;1.73;;;;;;;-1.33;100.00;101226.16;4973762;28;20031;-91
2023/11/25 05:05:10;;;;;;;3.95;1.88;;;;;;;-1.22;100.00;101232.94;4973440;28;20524;-92
2023/11/25 05:07:36;;;;;;;5.07;2.10;;;;;;;-1.31;100.00;101219.41;4973733;28;20482;-91
2023/11/25 05:10:04;;;;;;;9.02;2.40;;;;;;;-1.34;100.00;101211.81;4974375;28;20037;-91
2023/11/25 05:12:30;;;;;;;3.88;2.60;;;;;;;-1.38;100.00;101217.69;4972554;28;20047;-91
2023/11/25 05:14:55;;;;;;;4.05;2.08;;;;;;;-1.41;100.00;101220.22;4972708;28;20026;-92
2023/11/25 05:17:21;;;;;;;8.18;2.22;;;;;;;-1.41;100.00;101207.56;4963193;28;20035;-91
2023/11/25 05:19:46;;;;;;;5.30;2.40;;;;;;;-1.40;100.00;101211.75;4954242;28;20038;-92
2023/11/25 05:22:12;;;;;;;8.15;2.22;;;;;;;-1.46;100.00;101208.34;4955271;28;20035;-92
2023/11/25 05:24:38;;;;;;;3.72;2.20;;;;;;;-1.48;100.00;101198.25;4973151;28;20081;-92
2023/11/25 05:27:03;;;;;;;5.90;2.40;;;;;;;-1.44;100.00;101205.00;4974235;28;20053;-92
2023/11/25 05:29:29;;;;;;;7.55;2.42;;;;;;;-1.40;100.00;101191.50;4973709;28;20026;-92
2023/11/25 05:31:55;;;;;;;4.03;1.65;;;;;;;-1.51;100.00;101183.88;4972662;28;20065;-92
2023/11/25 05:34:20;;;;;;;4.03;1.95;;;;;;;-1.50;100.00;101184.72;4973982;28;20026;-90
2023/11/25 05:36:46;;;;;;;5.00;2.55;;;;;;;-1.46;100.00;101191.50;4974599;28;20031;-90
2023/11/25 05:39:13;;;;;;;7.13;2.38;;;;;;;-1.53;100.00;101192.31;4974544;28;20027;-92
2023/11/25 05:41:41;;;;;;;8.23;2.60;;;;;;;-1.37;100.00;101191.50;4973111;28;20034;-90
2023/11/25 05:44:07;;;;;;;4.65;2.33;;;;;;;-1.38;100.00;101199.13;4972828;28;20027;-92
2023/11/25 05:46:33;;;;;;;8.38;3.08;;;;;;;-1.46;100.00;101200.75;4972699;28;20065;-90
2023/11/25 05:48:59;;;;;;;11.68;3.53;;;;;;;-1.47;100.00;101199.06;4973684;28;20035;-90
2023/11/25 05:51:32;;;;;;;11.00;3.10;;;;;;;-1.47;100.00;101194.84;4974277;28;20369;-90
2023/11/25 05:53:58;;;;;;;5.75;2.72;;;;;;;-1.57;100.00;101198.19;4973314;28;20085;-91
2023/11/25 05:56:26;;;;;;;7.18;2.63;;;;;;;-1.54;100.00;101193.13;4973226;28;20019;-91
2023/11/25 05:58:52;;;;;;;8.88;3.03;;;;;;;-1.56;100.00;101190.63;4973405;28;20019;-90
2023/11/25 06:01:18;;;;;;;9.27;2.55;;;;;;;-1.61;100.00;101197.34;4971623;28;20548;-90
2023/11/25 06:03:43;;;;;;;7.32;3.17;;;;;;;-1.64;100.00;101201.53;4972608;28;20038;-91
2023/11/25 06:06:10;;;;;;;15.75;4.07;;;;;;;-1.57;100.00;101193.13;4973129;28;20050;-90
2023/11/25 06:08:36;;;;;;;5.80;3.40;;;;;;;-1.60;100.00;101195.66;4972717;28;20039;-91
2023/11/25 06:11:02;;;;;;;5.45;3.00;;;;;;;-1.63;100.00;101193.13;4973426;28;20519;-90
2023/11/25 06:13:28;;;;;;;7.82;3.67;;;;;;;-1.60;100.00;101199.03;4972232;28;20034;-91
2023/11/25 06:15:53;;;;;;;6.70;3.65;;;;;;;-1.76;100.00;101210.75;4973862;28;20092;-91
2023/11/25 06:18:20;;;;;;;11.13;4.95;;;;;;;-1.76;100.00;101210.75;4973742;28;20035;-91
2023/11/25 06:20:47;;;;;;;9.30;3.42;;;;;;;-1.77;100.00;101221.72;4972763;28;20069;-91
2023/11/25 06:23:12;;;;;;;7.90;3.25;;;;;;;-1.80;100.00;101221.69;4973295;28;20058;-90
2023/11/25 06:25:38;;;;;;;10.05;3.40;;;;;;;-1.73;100.00;101223.44;4972218;28;20073;-91
2023/11/25 06:28:03;;;;;;;7.57;3.55;;;;;;;-1.81;100.00;101209.88;4972998;28;20437;-91
2023/11/25 06:30:29;;;;;;;9.30;3.50;;;;;;;-1.70;100.00;101206.56;4972317;28;20481;-91
2023/11/25 06:32:54;;;;;;;10.00;3.80;;;;;;;-1.73;100.00;101209.94;4972718;28;20038;-90
2023/11/25 06:35:23;;;;;;;9.60;4.13;;;;;;;-1.73;100.00;101208.25;4972917;28;20027;-90
2023/11/25 06:37:48;;;;;;;7.13;2.83;;;;;;;-1.69;100.00;101214.16;4972924;28;20027;-91
2023/11/25 06:40:14;;;;;;;8.15;2.80;;;;;;;-1.69;100.00;101208.25;4970985;28;20038;-90
2023/11/25 06:42:40;;;;;;;9.88;2.83;;;;;;;-1.72;100.00;101209.09;4971465;28;20030;-90
2023/11/25 06:45:06;;;;;;;6.45;2.65;;;;;;;-1.71;100.00;101210.75;4972780;28;20027;-90
2023/11/25 06:47:32;;;;;;;10.57;2.20;;;;;;;-1.81;100.00;101204.81;4973215;28;20393;-91
2023/11/25 06:49:58;;;;;;;5.10;2.67;;;;;;;-1.82;100.00;101200.59;4973020;28;20069;-90
2023/11/25 06:52:23;;;;;;;5.28;2.22;;;;;;;-1.76;100.00;101218.31;4962497;28;20042;-90
2023/11/25 06:54:49;;;;;;;5.80;2.45;;;;;;;-1.81;100.00;101209.88;4972703;28;20375;-90
2023/11/25 06:57:15;;;;;;;6.10;2.67;;;;;;;-1.77;100.00;101211.59;4972929;28;20030;-90
2023/11/25 06:59:44;;;;;;;4.80;2.80;;;;;;;-1.84;100.00;101209.84;4973020;28;20027;-90
2023/11/25 07:02:11;;;;;;;5.80;3.05;;;;;;;-1.88;100.00;101208.13;4971642;28;20041;-91
2023/11/25 07:04:36;;;;;;;6.82;2.85;;;;;;;-1.88;100.00;101215.72;4972980;28;20065;-90
2023/11/25 07:07:01;;;;;;;11.77;2.83;;;;;;;-1.92;100.00;101211.50;4971335;28;20054;-90
2023/11/25 07:09:27;;;;;;;8.25;3.22;;;;;;;-1.83;100.00;101216.63;4972730;28;20041;-90
2023/11/25 07:11:54;;;;;;;6.50;3.05;;;;;;;-1.92;100.00;101214.03;4971192;28;20362;-90
2023/11/25 07:14:19;;;;;;;7.63;4.20;;;;;;;-1.94;100.00;101223.28;4972523;28;20027;-92
2023/11/25 07:16:45;;;;;;;6.97;3.38;;;;;;;-1.95;100.00;101227.50;4968526;28;20034;-90
2023/11/25 07:19:11;;;;;;;9.07;2.90;;;;;;;-1.98;100.00;101216.50;4971593;28;20032;-90
2023/11/25 07:21:36;;;;;;;6.40;2.90;;;;;;;-1.92;100.00;101226.69;4971638;28;20479;-90
2023/11/25 07:24:02;;;;;;;3.42;2.30;;;;;;;-2.01;100.00;101219.88;4970691;28;20038;-91
2023/11/25 07:26:28;;;;;;;5.90;1.88;;;;;;;-2.05;100.00;101215.66;4971527;28;20034;-91
2023/11/25 07:28:54;;;;;;;3.00;2.22;;;;;;;-2.02;100.00;101222.41;4971383;28;20503;-92
2023/11/25 07:31:24;;;;;;;8.23;2.10;;;;;;;-2.02;100.00;101219.88;4972446;28;20038;-90
2023/11/25 07:33:51;;;;;;;10.00;2.38;;;;;;;-1.95;100.00;101219.94;4972588;28;20034;-91
2023/11/25 07:36:16;;;;;;;8.15;1.95;;;;;;;-1.93;100.00;101227.50;4972408;28;20038;-90
2023/11/25 07:38:41;;;;;;;6.35;3.40;;;;;;;-1.97;100.00;101225.81;4971024;28;20045;-90
2023/11/25 07:41:15;;;;;;;4.38;2.20;;;;;;;-1.94;100.00;101225.81;4970130;28;20039;-91
2023/11/25 07:43:41;;;;;;;4.80;2.17;;;;;;;-1.96;100.00;101222.44;4972658;28;20105;-90
2023/11/25 07:46:07;;;;;;;7.78;2.25;;;;;;;-1.87;100.00;101219.97;4971486;28;20508;-90
2023/11/25 07:48:33;;;;;;;8.02;2.53;;;;;;;-1.98;100.00;101221.56;4972102;28;20477;-90
2023/11/25 07:50:58;;;;;;;7.10;2.92;;;;;;;-1.97;100.00;101226.66;4972739;28;20027;-90
2023/11/25 07:53:24;;;;;;;6.93;2.60;;;;;;;-1.99;100.00;101230.00;4974087;28;20046;-90
2023/11/25 07:55:50;;;;;;;11.80;2.80;;;;;;;-2.07;100.00;101227.44;4974984;28;20038;-91
2023/11/25 07:58:16;;;;;;;6.50;2.85;;;;;;;-2.09;100.00;101234.16;4975696;28;20544;-90
2023/11/25 08:00:42;;;;;;;5.75;2.53;;;;;;;-2.05;100.00;101233.34;4974772;28;20038;-90
2023/11/25 08:03:09;;;;;;;9.45;2.17;;;;;;;-2.02;100.00;101237.59;4976140;28;20040;-90
2023/11/25 08:05:34;;;;;;;9.15;3.53;;;;;;;-1.84;100.00;101245.28;4975882;28;20041;-93
2023/11/25 08:08:00;;;;;;;8.00;4.88;;;;;;;-1.77;100.00;101239.44;4975774;28;20031;-91
2023/11/25 08:10:31;;;;;;;8.25;4.65;;;;;;;-1.75;100.00;101236.91;4974799;28;20031;-91
2023/11/25 08:12:56;;;;;;;10.90;2.87;;;;;;;-1.88;100.00;101252.84;4974553;28;20058;-92
2023/11/25 08:15:22;;;;;;;7.70;3.25;;;;;;;-1.93;100.00;101255.34;4974735;28;20042;-91
2023/11/25 08:17:48;;;;;;;4.07;1.73;;;;;;;-1.87;100.00;101259.63;4975419;28;20026;-91
2023/11/25 08:20:13;;;;;;;5.55;2.35;;;;;;;-1.99;100.00;101252.78;4975480;28;20066;-93
2023/11/25 08:22:39;;;;;;;9.52;3.53;;;;;;;-1.90;100.00;101247.78;4975055;28;20059;-93
2023/11/25 08:25:07;;;;;;;9.05;3.50;;;;;;;-1.88;100.00;101263.81;4971899;28;20493;-93
2023/11/25 08:27:37;;;;;;;14.20;4.43;;;;;;;-1.86;100.00;101262.13;4975528;28;20477;-90
2023/11/25 08:30:08;;;;;;;6.53;3.63;;;;;;;-1.78;100.00;101260.53;4956283;28;20035;-90
2023/11/25 08:32:34;;;;;;;13.93;3.42;;;;;;;-1.72;100.00;101260.53;4958874;28;20030;-92
2023/11/25 08:35:00;;;;;;;9.25;4.05;;;;;;;-1.71;100.00;101258.84;4973658;28;20034;-93
2023/11/25 08:37:27;;;;;;;7.60;3.72;;;;;;;-1.69;100.00;101263.94;4977028;28;20084;-93
2023/11/25 08:39:54;;;;;;;6.47;3.50;;;;;;;-1.68;100.00;101268.16;4973004;28;20485;-91
2023/11/25 08:42:24;;;;;;;6.88;2.67;;;;;;;-1.66;100.00;101259.72;4973825;28;20035;-92
2023/11/25 08:44:50;;;;;;;5.00;2.53;;;;;;;-1.55;100.00;101264.88;4975234;28;20385;-93
2023/11/25 08:47:16;;;;;;;9.70;3.78;;;;;;;-1.47;100.00;101267.44;4975509;28;20548;-92
2023/11/25 08:49:41;;;;;;;8.38;3.50;;;;;;;-1.55;100.00;101262.34;4973633;28;20039;-91
2023/11/25 08:52:08;;;;;;;7.70;3.75;;;;;;;-1.51;100.00;101269.97;4974813;28;20081;-92
2023/11/25 08:54:37;;;;;;;7.20;3.47;;;;;;;-1.52;100.00;101264.88;4972365;28;20054;-96
2023/11/25 08:57:03;;;;;;;6.55;3.50;;;;;;;-1.57;100.00;101261.47;4974233;28;20026;-93
2023/11/25 08:59:31;;;;;;;5.35;3.42;;;;;;;-1.50;100.00;101260.66;4975234;28;20596;-91
2023/11/25 09:01:57;;;;;;;8.30;3.20;;;;;;;-1.42;100.00;101253.94;4972612;28;20043;-92
2023/11/25 09:04:25;;;;;;;8.63;3.17;;;;;;;-1.36;100.00;101248.94;4975130;28;20077;-93
2023/11/25 09:06:51;;;;;;;6.45;3.08;;;;;;;-1.38;100.00;101254.84;4973927;28;20037;-90
2023/11/25 09:09:19;;;;;;;6.85;2.88;;;;;;;-1.34;100.00;101254.84;4966137;28;20031;-92
2023/11/25 09:11:45;;;;;;;11.35;3.28;;;;;;;-1.34;100.00;101259.91;4971455;28;20033;-92
2023/11/25 09:14:11;;;;;;;7.90;2.92;;;;;;;-1.35;100.00;101245.53;4970819;28;20047;-91
2023/11/25 09:16:37;;;;;;;6.68;3.78;;;;;;;-1.20;100.00;101254.06;4972581;28;20022;-92
2023/11/25 09:19:03;;;;;;;9.75;4.25;;;;;;;-1.09;100.00;101257.50;4968935;28;20057;-91
2023/11/25 09:21:28;;;;;;;10.05;4.50;;;;;;;-1.03;100.00;101252.41;4974428;28;20093;-92
2023/11/25 09:23:57;;;;;;;7.95;3.92;;;;;;;-1.03;100.00;101262.56;4972848;28;20023;-95
2023/11/25 09:26:24;;;;;;;8.00;4.95;;;;;;;-0.96;100.00;101258.38;4974296;28;20026;-94
2023/11/25 09:28:50;;;;;;;6.88;3.90;;;;;;;-0.92;100.00;101265.97;4973866;28;20500;-93
2023/11/25 09:31:16;;;;;;;8.73;4.07;;;;;;;-0.90;100.00;101256.69;4975266;28;20031;-92
2023/11/25 09:33:42;;;;;;;9.15;4.97;;;;;;;-0.78;100.00;101255.03;4974522;28;20031;-94
2023/11/25 09:36:09;;;;;;;9.13;5.43;;;;;;;-0.75;100.00;101253.34;4974216;28;20401;-95
2023/11/25 09:38:34;;;;;;;12.40;5.07;;;;;;;-0.67;100.00;101243.22;4973897;28;20043;-94
2023/11/25 09:41:00;;;;;;;10.07;5.20;;;;;;;-0.61;100.00;101250.88;4974542;28;20616;-95
2023/11/25 09:43:25;;;;;;;12.32;5.30;;;;;;;-0.54;100.00;101239.00;4975241;28;20035;-94
2023/11/25 09:45:52;;;;;;;10.57;5.60;;;;;;;-0.48;100.00;101233.97;4973353;28;20023;-94
2023/11/25 09:48:18;;;;;;;9.48;5.40;;;;;;;-0.39;100.00;101233.09;4974024;28;20026;-94
2023/11/25 09:50:43;;;;;;;8.27;5.15;;;;;;;-0.17;100.00;101241.56;4971406;28;20030;-93
2023/11/25 09:53:24;;;;;;;8.77;5.43;;;;;;;-0.15;100.00;101240.72;4971631;28;20552;-94
2023/11/25 09:56:00;;;;;;;7.45;5.20;;;;;;;-0.10;100.00;101245.78;4978029;28;20033;-95
2023/11/25 09:58:28;;;;;;;10.65;5.40;;;;;;;-0.01;100.00;101246.63;4972314;28;20035;-94
2023/11/25 10:00:56;;;;;;;9.52;5.55;;;;;;;0.27;100.00;101233.91;4966812;28;20034;-93
2023/11/25 10:03:22;;;;;;;11.68;6.00;;;;;;;1.23;100.00;101239.44;4971278;28;20034;-94
2023/11/25 10:05:47;;;;;;;9.45;5.68;;;;;;;1.68;100.00;101256.09;4972595;28;20030;-94
2023/11/25 10:08:12;;;;;;;9.25;6.38;;;;;;;2.84;100.00;101247.31;4972328;28;20034;-93
2023/11/25 10:10:38;;;;;;;13.43;6.95;;;;;;;3.54;100.00;101246.31;4968755;28;20400;-93
2023/11/25 10:13:04;;;;;;;9.80;6.00;;;;;;;3.71;100.00;101245.22;4971202;28;20027;-93
2023/11/25 10:15:29;;;;;;;12.20;6.30;;;;;;;3.65;100.00;101256.34;4972855;28;20122;-91
2023/11/25 10:17:55;;;;;;;9.75;5.90;;;;;;;3.20;100.00;101254.47;4973282;28;20026;-94
2023/11/25 10:20:22;;;;;;;7.57;5.03;;;;;;;3.45;100.00;101248.16;4967892;28;20037;-92
2023/11/25 10:22:58;;;;;;;22.67;5.60;;;;;;;4.27;100.00;101239.13;4961350;28;20031;-93
2023/11/25 10:25:26;;;;;;;8.00;4.22;;;;;;;4.15;100.00;101228.28;4961921;28;21573;-92
2023/11/25 10:27:53;;;;;;;13.43;4.03;;;;;;;5.71;97.54;101236.91;4967940;28;20055;-90
2023/11/25 10:30:21;;;;;;;12.23;3.50;;;;;;;7.16;86.61;101229.53;4972470;28;20031;-90
2023/11/25 10:32:49;;;;;;;11.93;4.53;;;;;;;8.33;77.21;101228.25;4968955;28;20517;-90
2023/11/25 10:35:14;;;;;;;9.60;3.95;;;;;;;8.62;69.37;101221.28;4961792;28;20035;-91
2023/11/25 10:37:41;;;;;;;8.23;2.60;;;;;;;8.79;71.11;101219.75;4961418;28;20378;-91
2023/11/25 10:40:10;;;;;;;6.32;2.38;;;;;;;10.06;66.35;101220.69;4965077;28;20481;-93
2023/11/25 10:42:42;;;;;;;10.40;2.35;;;;;;;10.63;61.18;101226.84;4972618;28;20035;-92
2023/11/25 10:45:17;;;;;;;8.55;1.42;;;;;;;10.35;57.71;101226.38;4971741;28;20110;-94
2023/11/25 10:47:43;;;;;;;9.48;1.58;;;;;;;10.68;56.70;101229.19;4957406;28;20067;-94
2023/11/25 10:50:09;;;;;;;8.13;1.80;;;;;;;11.03;55.22;101227.56;4970986;28;20417;-93
2023/11/25 10:52:38;;;;;;;8.15;1.88;;;;;;;11.02;54.64;101222.47;4971774;28;20456;-91
2023/11/25 10:55:06;;;;;;;7.00;1.58;;;;;;;10.86;53.55;101222.34;4971793;28;20027;-90
2023/11/25 10:57:32;;;;;;;6.95;1.25;;;;;;;10.93;53.19;101219.41;4971609;28;20066;-90
2023/11/25 10:59:58;;;;;;;11.07;4.55;;;;;;;11.03;52.53;101214.66;4969648;28;20069;-89
2023/11/25 11:02:42;;;;;;;9.50;2.20;;;;;;;10.62;53.28;101214.81;4966491;28;20126;-90
2023/11/25 11:05:17;;;;;;;4.68;1.63;;;;;;;10.02;53.30;101208.81;4971392;28;20030;-94
2023/11/25 11:07:49;;;;;;;5.97;2.28;;;;;;;10.18;54.76;101209.03;4974456;28;20070;-93
2023/11/25 11:10:20;;;;;;;9.85;3.50;;;;;;;9.60;56.02;101204.56;4966571;28;20031;-93
2023/11/25 11:12:58;;;;;;;12.65;4.72;;;;;;;9.96;55.97;101198.78;4964846;28;20026;-92